createdAt,value
2023-08-11T00:00:09.674Z,75.03
2023-08-11T00:02:58.084Z,75.12
2023-08-11T00:05:26.557Z,75.02
2023-08-11T00:07:56.012Z,74.82
2023-08-11T00:10:25.309Z,74.77
2023-08-11T00:12:53.181Z,74.75
2023-08-11T00:15:21.606Z,74.75
2023-08-11T00:17:49.538Z,74.71
2023-08-11T00:20:17.474Z,74.68
2023-08-11T00:22:45.556Z,74.56
2023-08-11T00:25:13.629Z,74.93
2023-08-11T00:27:41.564Z,74.74
2023-08-11T00:30:10.648Z,74.69
2023-08-11T00:32:40.293Z,74.72
2023-08-11T00:35:09.189Z,74.66
2023-08-11T00:37:37.120Z,74.59
2023-08-11T00:40:05.821Z,74.52
2023-08-11T00:42:33.751Z,74.55
2023-08-11T00:45:01.821Z,74.19
2023-08-11T00:47:30.600Z,73.77
2023-08-11T00:49:58.678Z,73.79
2023-08-11T00:52:26.962Z,73.53
2023-08-11T00:54:57.653Z,73.62
2023-08-11T00:57:25.717Z,73.48
2023-08-11T00:59:54.046Z,73.81
2023-08-11T01:02:23.146Z,73.78
2023-08-11T01:04:51.089Z,73.58
2023-08-11T01:07:25.774Z,73.52
2023-08-11T01:10:16.176Z,73.45
2023-08-11T01:13:07.046Z,73.48
2023-08-11T01:15:41.949Z,73.52
2023-08-11T01:18:11.364Z,73.42
2023-08-11T01:20:40.820Z,73.05
2023-08-11T01:23:16.181Z,73.10
2023-08-11T01:25:44.690Z,73.09
2023-08-11T01:28:12.658Z,73.06
2023-08-11T01:30:41.162Z,73.05
2023-08-11T01:33:10.390Z,72.88
2023-08-11T01:35:42.047Z,72.76
2023-08-11T01:38:11.509Z,72.52
2023-08-11T01:40:40.228Z,72.30
2023-08-11T01:43:11.418Z,72.25
2023-08-11T01:45:40.641Z,72.05
2023-08-11T01:48:09.654Z,72.43
2023-08-11T01:50:39.006Z,72.40
2023-08-11T01:53:07.001Z,72.61
2023-08-11T01:55:35.143Z,72.77
2023-08-11T01:58:03.707Z,72.96
2023-08-11T02:00:31.781Z,73.05
2023-08-11T02:03:00.118Z,73.14
2023-08-11T02:05:30.476Z,73.24
2023-08-11T02:07:59.528Z,73.41
2023-08-11T02:10:27.443Z,73.67
2023-08-11T02:12:55.409Z,73.57
2023-08-11T02:15:23.556Z,74.05
2023-08-11T02:17:51.638Z,73.84
2023-08-11T02:20:24.118Z,73.91
2023-08-11T02:22:53.949Z,74.10
2023-08-11T02:25:23.633Z,74.28
2023-08-11T02:27:52.056Z,74.60
2023-08-11T02:30:20.600Z,74.87
2023-08-11T02:32:48.831Z,75.02
2023-08-11T02:35:18.492Z,75.12
2023-08-11T02:38:06.994Z,75.21
2023-08-11T02:40:36.509Z,75.26
2023-08-11T02:43:04.788Z,75.29
2023-08-11T02:45:32.836Z,75.48
2023-08-11T02:48:00.859Z,75.71
2023-08-11T02:50:28.939Z,75.66
2023-08-11T02:52:56.870Z,75.77
2023-08-11T02:55:25.203Z,75.88
2023-08-11T02:57:53.287Z,76.06
2023-08-11T03:00:21.199Z,75.78
2023-08-11T03:02:49.568Z,75.82
2023-08-11T03:05:18.174Z,75.79
2023-08-11T03:07:46.212Z,75.80
2023-08-11T03:10:14.551Z,76.16
2023-08-11T03:12:42.654Z,76.17
2023-08-11T03:15:11.634Z,76.05
2023-08-11T03:17:40.027Z,76.01
2023-08-11T03:20:16.480Z,76.09
2023-08-11T03:22:45.389Z,76.18
2023-08-11T03:25:13.727Z,76.18
2023-08-11T03:27:43.897Z,76.39
2023-08-11T03:30:13.580Z,76.49
2023-08-11T03:32:41.626Z,76.49
2023-08-11T03:35:09.938Z,76.48
2023-08-11T03:37:37.865Z,76.46
2023-08-11T03:40:14.129Z,76.51
2023-08-11T03:42:43.600Z,76.29
2023-08-11T03:45:15.959Z,76.33
2023-08-11T03:47:44.541Z,76.27
2023-08-11T03:50:13.170Z,76.32
2023-08-11T03:52:41.300Z,76.24
2023-08-11T03:55:11.049Z,76.04
2023-08-11T03:57:39.470Z,76.35
2023-08-11T04:00:15.635Z,76.21
2023-08-11T04:02:44.920Z,76.19
2023-08-11T04:05:13.633Z,76.25
2023-08-11T04:07:42.003Z,76.08
2023-08-11T04:10:13.559Z,75.93
2023-08-11T04:12:41.505Z,75.88
2023-08-11T04:15:09.780Z,75.67
2023-08-11T04:17:38.241Z,75.53
2023-08-11T04:20:13.834Z,75.71
2023-08-11T04:22:42.802Z,75.64
2023-08-11T04:25:12.597Z,75.77
2023-08-11T04:27:40.781Z,75.54
2023-08-11T04:30:10.204Z,75.39
2023-08-11T04:32:38.463Z,75.42
2023-08-11T04:35:09.828Z,75.22
2023-08-11T04:37:37.877Z,75.24
2023-08-11T04:40:10.727Z,75.03
2023-08-11T04:42:39.340Z,74.81
2023-08-11T04:45:08.114Z,74.72
2023-08-11T04:47:36.489Z,74.36
2023-08-11T04:50:04.897Z,74.19
2023-08-11T04:52:33.862Z,74.18
2023-08-11T04:55:01.868Z,74.02
2023-08-11T04:57:29.925Z,74.16
2023-08-11T04:59:58.069Z,73.81
2023-08-11T05:02:26.091Z,73.83
2023-08-11T05:04:55.004Z,74.03
2023-08-11T05:07:22.997Z,74.09
2023-08-11T05:09:51.090Z,74.00
2023-08-11T05:12:19.150Z,73.83
2023-08-11T05:14:48.610Z,73.74
2023-08-11T05:17:16.733Z,73.65
2023-08-11T05:19:44.809Z,73.51
2023-08-11T05:22:13.631Z,73.18
2023-08-11T05:24:41.516Z,73.24
2023-08-11T05:27:10.386Z,73.06
2023-08-11T05:29:41.242Z,72.79
2023-08-11T05:32:09.198Z,72.23
2023-08-11T05:34:40.806Z,72.42
2023-08-11T05:37:09.312Z,72.40
2023-08-11T05:39:40.471Z,72.28
2023-08-11T05:42:09.126Z,71.91
2023-08-11T05:44:38.498Z,71.53
2023-08-11T05:47:07.310Z,70.60
2023-08-11T05:49:35.693Z,70.44
2023-08-11T05:52:03.861Z,70.46
2023-08-11T05:54:37.423Z,70.17
2023-08-11T05:57:05.666Z,70.38
2023-08-11T05:59:33.835Z,70.53
2023-08-11T06:02:01.827Z,70.49
2023-08-11T06:04:29.735Z,70.43
2023-08-11T06:06:57.737Z,70.46
2023-08-11T06:09:25.706Z,69.88
2023-08-11T06:11:53.676Z,69.73
2023-08-11T06:14:21.917Z,69.57
2023-08-11T06:16:50.084Z,69.76
2023-08-11T06:19:18.014Z,69.93
2023-08-11T06:21:46.769Z,70.19
2023-08-11T06:24:14.654Z,69.46
2023-08-11T06:26:43.795Z,68.99
2023-08-11T06:29:11.903Z,68.94
2023-08-11T06:31:39.795Z,69.01
2023-08-11T06:34:07.844Z,68.66
2023-08-11T06:36:36.006Z,68.73
2023-08-11T06:39:04.592Z,68.84
2023-08-11T06:41:32.535Z,68.46
2023-08-11T06:44:00.511Z,68.68
2023-08-11T06:46:28.552Z,68.96
2023-08-11T06:48:56.510Z,68.86
2023-08-11T06:51:24.590Z,68.57
2023-08-11T06:53:52.681Z,67.94
2023-08-11T06:56:20.766Z,68.14
2023-08-11T06:58:48.714Z,68.21
2023-08-11T07:01:19.014Z,68.05
2023-08-11T07:03:47.053Z,67.91
2023-08-11T07:06:15.700Z,68.00
2023-08-11T07:08:43.783Z,67.96
2023-08-11T07:11:11.813Z,67.61
2023-08-11T07:13:40.214Z,67.01
2023-08-11T07:16:08.087Z,66.86
2023-08-11T07:18:36.046Z,66.93
2023-08-11T07:21:04.172Z,66.62
2023-08-11T07:23:32.190Z,66.50
2023-08-11T07:26:00.186Z,66.08
2023-08-11T07:28:28.097Z,65.49
2023-08-11T07:30:56.104Z,65.52
2023-08-11T07:33:24.427Z,65.57
2023-08-11T07:35:52.452Z,65.41
2023-08-11T07:38:21.631Z,65.66
2023-08-11T07:40:49.866Z,65.88
2023-08-11T07:43:17.931Z,65.95
2023-08-11T07:45:46.174Z,66.09
2023-08-11T07:48:14.399Z,65.49
2023-08-11T07:50:42.541Z,65.18
2023-08-11T07:53:10.493Z,65.14
2023-08-11T07:55:38.563Z,65.36
2023-08-11T07:58:07.037Z,65.07
2023-08-11T08:00:35.117Z,64.47
2023-08-11T08:03:03.277Z,64.72
2023-08-11T08:05:32.431Z,64.96
2023-08-11T08:08:00.380Z,65.11
2023-08-11T08:10:28.544Z,64.92
2023-08-11T08:12:56.461Z,65.11
2023-08-11T08:15:25.677Z,64.75
2023-08-11T08:17:53.769Z,64.00
2023-08-11T08:20:21.963Z,64.03
2023-08-11T08:22:51.180Z,63.44
2023-08-11T08:25:19.092Z,63.13
2023-08-11T08:28:00.865Z,63.41
2023-08-11T08:30:34.794Z,62.97
2023-08-11T08:33:02.903Z,63.01
2023-08-11T08:35:30.978Z,63.01
2023-08-11T08:37:58.921Z,62.45
2023-08-11T08:40:28.635Z,62.40
2023-08-11T08:42:56.597Z,62.39
2023-08-11T08:45:29.023Z,61.09
2023-08-11T08:47:59.424Z,59.96
2023-08-11T08:50:28.566Z,59.15
2023-08-11T08:53:00.593Z,58.87
2023-08-11T08:55:28.695Z,58.79
2023-08-11T08:57:57.275Z,58.84
2023-08-11T09:00:25.439Z,58.83
2023-08-11T09:02:54.991Z,58.65
2023-08-11T09:05:23.683Z,58.75
2023-08-11T09:07:51.773Z,58.40
2023-08-11T09:10:20.007Z,57.84
2023-08-11T09:12:52.095Z,57.39
2023-08-11T09:15:23.198Z,57.32
2023-08-11T09:17:51.906Z,57.64
2023-08-11T09:20:21.018Z,56.51
2023-08-11T09:22:52.133Z,56.11
2023-08-11T09:25:20.403Z,55.22
2023-08-11T09:27:55.713Z,53.50
2023-08-11T09:30:32.795Z,52.10
2023-08-11T09:33:02.776Z,51.43
2023-08-11T09:35:31.177Z,50.97
2023-08-11T09:38:00.546Z,50.36
2023-08-11T09:40:28.523Z,50.55
2023-08-11T09:42:57.708Z,50.91
2023-08-11T09:45:32.648Z,50.33
2023-08-11T09:48:01.215Z,49.30
2023-08-11T09:50:38.307Z,48.58
2023-08-11T09:53:08.331Z,46.46
2023-08-11T09:55:39.453Z,47.44
2023-08-11T09:58:12.853Z,46.75
2023-08-11T10:00:41.333Z,46.66
2023-08-11T10:03:20.171Z,46.03
2023-08-11T10:05:52.228Z,44.78
2023-08-11T10:08:23.762Z,44.22
2023-08-11T10:10:52.001Z,44.25
2023-08-11T10:13:29.850Z,44.65
2023-08-11T10:15:58.777Z,44.10
2023-08-11T10:18:27.241Z,43.09
2023-08-11T10:20:57.076Z,43.52
2023-08-11T10:23:28.562Z,44.44
2023-08-11T10:25:57.012Z,45.13
2023-08-11T10:28:25.501Z,44.43
2023-08-11T10:30:58.368Z,44.73
2023-08-11T10:33:30.730Z,44.88
2023-08-11T10:36:01.968Z,44.64
2023-08-11T10:38:31.628Z,44.61
2023-08-11T10:41:10.771Z,45.42
2023-08-11T10:43:42.412Z,45.79
2023-08-11T10:46:30.464Z,46.16
2023-08-11T10:49:00.513Z,46.20
2023-08-11T10:51:33.631Z,46.55
2023-08-11T10:54:12.912Z,46.70
2023-08-11T10:56:43.097Z,46.86
2023-08-11T10:59:16.268Z,47.39
2023-08-11T11:01:48.734Z,47.67
2023-08-11T11:04:22.765Z,47.63
2023-08-11T11:06:54.854Z,47.91
2023-08-11T11:09:23.281Z,47.84
2023-08-11T11:11:52.759Z,47.84
2023-08-11T11:14:21.073Z,48.05
2023-08-11T11:16:50.097Z,47.04
2023-08-11T11:19:18.166Z,46.92
2023-08-11T11:21:46.882Z,46.88
2023-08-11T11:24:16.471Z,46.51
2023-08-11T11:26:44.902Z,46.75
2023-08-11T11:29:13.174Z,47.22
2023-08-11T11:31:41.356Z,46.70
2023-08-11T11:34:10.104Z,46.60
2023-08-11T11:36:38.195Z,46.23
2023-08-11T11:39:10.383Z,45.40
2023-08-11T11:41:39.504Z,46.05
2023-08-11T11:44:07.579Z,46.16
2023-08-11T11:46:35.709Z,45.13
2023-08-11T11:49:09.589Z,45.45
2023-08-11T11:51:44.310Z,45.29
2023-08-11T11:54:12.312Z,43.93
2023-08-11T11:56:47.177Z,44.00
2023-08-11T11:59:19.434Z,44.46
2023-08-11T12:01:47.511Z,44.01
2023-08-11T12:04:16.220Z,44.70
2023-08-11T12:06:44.327Z,44.45
2023-08-11T12:09:14.225Z,43.88
2023-08-11T12:11:42.335Z,43.84
2023-08-11T12:14:12.967Z,43.22
2023-08-11T12:16:41.101Z,43.45
2023-08-11T12:19:10.960Z,42.99
2023-08-11T12:21:39.200Z,42.69
2023-08-11T12:24:08.345Z,41.91
2023-08-11T12:26:36.197Z,40.86
2023-08-11T12:29:06.686Z,40.47
2023-08-11T12:31:34.587Z,39.97
2023-08-11T12:34:02.706Z,39.59
2023-08-11T12:36:30.987Z,39.25
2023-08-11T12:39:01.199Z,39.82
2023-08-11T12:41:29.182Z,40.09
2023-08-11T12:43:57.158Z,39.79
2023-08-11T12:46:25.994Z,39.80
2023-08-11T12:48:54.172Z,39.26
2023-08-11T12:51:22.080Z,39.79
2023-08-11T12:53:50.210Z,38.42
2023-08-11T12:56:19.053Z,38.85
2023-08-11T12:58:47.141Z,39.22
2023-08-11T13:01:18.322Z,39.31
2023-08-11T13:03:47.444Z,39.19
2023-08-11T13:06:16.311Z,40.02
2023-08-11T13:08:44.565Z,39.97
2023-08-11T13:11:12.623Z,40.18
2023-08-11T13:13:41.217Z,40.49
2023-08-11T13:16:09.683Z,41.62
2023-08-11T13:18:38.409Z,43.26
2023-08-11T13:21:06.370Z,44.48
2023-08-11T13:23:34.762Z,45.34
2023-08-11T13:26:03.884Z,45.57
2023-08-11T13:28:31.777Z,46.19
2023-08-11T13:31:00.456Z,45.42
2023-08-11T13:33:28.409Z,45.15
2023-08-11T13:35:56.521Z,45.37
2023-08-11T13:38:27.585Z,45.41
2023-08-11T13:40:58.734Z,45.40
2023-08-11T13:43:26.696Z,44.59
2023-08-11T13:45:55.097Z,44.18
2023-08-11T13:48:27.121Z,44.42
2023-08-11T13:50:56.405Z,44.11
2023-08-11T13:53:24.453Z,44.18
2023-08-11T13:55:52.786Z,44.53
2023-08-11T13:58:20.724Z,44.74
2023-08-11T14:00:49.823Z,44.76
2023-08-11T14:03:17.725Z,44.93
2023-08-11T14:05:45.631Z,45.33
2023-08-11T14:08:13.620Z,45.37
2023-08-11T14:10:41.652Z,45.33
2023-08-11T14:13:11.742Z,45.47
2023-08-11T14:15:40.181Z,45.69
2023-08-11T14:18:08.684Z,46.07
2023-08-11T14:20:36.923Z,46.49
2023-08-11T14:23:05.149Z,46.65
2023-08-11T14:25:34.029Z,46.60
2023-08-11T14:28:04.082Z,46.98
2023-08-11T14:30:32.162Z,46.95
2023-08-11T14:33:01.367Z,47.26
2023-08-11T14:35:29.579Z,47.30
2023-08-11T14:37:59.656Z,47.57
2023-08-11T14:40:27.824Z,47.70
2023-08-11T14:42:55.727Z,47.61
2023-08-11T14:45:23.582Z,48.01
2023-08-11T14:47:51.671Z,48.12
2023-08-11T14:50:20.039Z,48.22
2023-08-11T14:52:48.014Z,48.33
2023-08-11T14:55:16.675Z,48.39
2023-08-11T14:57:45.435Z,48.61
2023-08-11T15:00:14.819Z,49.17
2023-08-11T15:02:43.179Z,49.46
2023-08-11T15:05:11.381Z,49.56
2023-08-11T15:07:39.464Z,49.36
2023-08-11T15:10:08.610Z,49.74
2023-08-11T15:12:36.877Z,50.07
2023-08-11T15:15:06.097Z,50.29
2023-08-11T15:17:34.141Z,49.90
2023-08-11T15:20:02.319Z,49.55
2023-08-11T15:22:30.401Z,49.57
2023-08-11T15:25:02.432Z,49.21
2023-08-11T15:27:31.190Z,48.63
2023-08-11T15:29:59.691Z,48.36
2023-08-11T15:32:27.944Z,48.50
2023-08-11T15:34:56.022Z,48.60
2023-08-11T15:37:23.981Z,48.83
2023-08-11T15:39:55.065Z,48.92
2023-08-11T15:42:23.423Z,49.22
2023-08-11T15:44:51.420Z,48.92
2023-08-11T15:47:19.451Z,48.83
2023-08-11T15:49:50.638Z,48.87
2023-08-11T15:52:18.902Z,48.65
2023-08-11T15:54:46.907Z,48.82
2023-08-11T15:57:14.768Z,49.09
2023-08-11T15:59:43.507Z,49.29
2023-08-11T16:02:11.743Z,48.95
2023-08-11T16:04:39.803Z,49.06
2023-08-11T16:07:07.815Z,49.42
2023-08-11T16:09:35.814Z,49.64
2023-08-11T16:12:04.035Z,49.64
2023-08-11T16:14:32.509Z,49.92
2023-08-11T16:17:00.455Z,49.72
2023-08-11T16:19:28.615Z,50.23
2023-08-11T16:21:56.621Z,50.32
2023-08-11T16:24:24.633Z,49.94
2023-08-11T16:26:52.719Z,50.15
2023-08-11T16:29:20.608Z,50.47
2023-08-11T16:31:50.224Z,51.06
2023-08-11T16:34:18.545Z,50.49
2023-08-11T16:36:46.454Z,50.58
2023-08-11T16:39:15.206Z,50.76
2023-08-11T16:41:43.199Z,51.24
2023-08-11T16:44:11.582Z,50.90
2023-08-11T16:46:40.490Z,51.15
2023-08-11T16:49:08.627Z,51.39
2023-08-11T16:51:36.630Z,51.50
2023-08-11T16:54:05.031Z,51.65
2023-08-11T16:56:33.075Z,51.90
2023-08-11T16:59:01.964Z,51.97
2023-08-11T17:01:30.001Z,51.97
2023-08-11T17:03:58.300Z,52.47
2023-08-11T17:06:26.335Z,52.75
2023-08-11T17:08:55.508Z,52.26
2023-08-11T17:11:23.623Z,51.92
2023-08-11T17:13:51.588Z,52.01
2023-08-11T17:16:20.324Z,51.89
2023-08-11T17:18:51.025Z,52.16
2023-08-11T17:21:21.667Z,52.22
2023-08-11T17:23:55.711Z,52.48
2023-08-11T17:26:24.364Z,52.75
2023-08-11T17:28:57.045Z,52.97
2023-08-11T17:31:25.126Z,53.12
2023-08-11T17:33:53.213Z,53.14
2023-08-11T17:36:26.668Z,53.57
2023-08-11T17:38:56.117Z,53.78
2023-08-11T17:41:28.023Z,53.91
2023-08-11T17:43:57.909Z,54.04
2023-08-11T17:46:27.393Z,54.38
2023-08-11T17:48:55.628Z,54.31
2023-08-11T17:51:25.231Z,54.41
2023-08-11T17:54:08.152Z,54.70
2023-08-11T17:56:38.369Z,54.86
2023-08-11T17:59:06.772Z,54.98
2023-08-11T18:01:34.935Z,55.35
2023-08-11T18:04:07.471Z,55.50
2023-08-11T18:06:37.256Z,55.58
2023-08-11T18:09:05.948Z,55.68
2023-08-11T18:11:35.597Z,55.65
2023-08-11T18:14:04.569Z,55.74
2023-08-11T18:16:33.437Z,56.19
2023-08-11T18:19:01.545Z,56.34
2023-08-11T18:21:29.770Z,56.49
2023-08-11T18:23:57.804Z,56.90
2023-08-11T18:26:25.893Z,57.14
2023-08-11T18:28:53.934Z,57.30
2023-08-11T18:31:22.073Z,57.58
2023-08-11T18:33:50.109Z,57.58
2023-08-11T18:36:18.351Z,57.74
2023-08-11T18:38:47.200Z,57.87
2023-08-11T18:41:15.040Z,58.01
2023-08-11T18:43:43.030Z,57.89
2023-08-11T18:46:11.137Z,58.07
2023-08-11T18:48:39.269Z,58.13
2023-08-11T18:51:07.212Z,58.26
2023-08-11T18:53:35.187Z,58.14
2023-08-11T18:56:03.234Z,58.20
2023-08-11T18:58:31.271Z,58.61
2023-08-11T19:00:59.335Z,58.80
2023-08-11T19:03:27.386Z,58.73
2023-08-11T19:05:58.719Z,58.92
2023-08-11T19:08:27.042Z,59.26
2023-08-11T19:10:55.091Z,59.35
2023-08-11T19:13:23.107Z,59.14
2023-08-11T19:15:51.472Z,59.11
2023-08-11T19:18:19.480Z,59.27
2023-08-11T19:20:48.335Z,59.44
2023-08-11T19:23:17.329Z,59.69
2023-08-11T19:25:45.425Z,59.65
2023-08-11T19:28:13.484Z,59.74
2023-08-11T19:30:41.585Z,60.03
2023-08-11T19:33:10.888Z,59.87
2023-08-11T19:35:39.442Z,60.01
2023-08-11T19:38:07.732Z,60.12
2023-08-11T19:40:35.644Z,60.48
2023-08-11T19:43:03.808Z,60.57
2023-08-11T19:45:32.138Z,60.77
2023-08-11T19:48:00.309Z,60.95
2023-08-11T19:50:28.568Z,61.27
2023-08-11T19:52:56.805Z,61.40
2023-08-11T19:55:24.717Z,61.50
2023-08-11T19:57:52.780Z,61.40
2023-08-11T20:00:21.118Z,61.49
2023-08-11T20:02:49.257Z,61.69
2023-08-11T20:05:17.431Z,61.94
2023-08-11T20:07:45.453Z,62.08
2023-08-11T20:10:13.683Z,62.08
2023-08-11T20:12:41.843Z,62.17
2023-08-11T20:15:10.321Z,62.37
2023-08-11T20:17:39.712Z,62.25
2023-08-11T20:20:08.506Z,62.45
2023-08-11T20:22:36.581Z,62.98
2023-08-11T20:25:04.835Z,62.88
2023-08-11T20:27:33.077Z,62.75
2023-08-11T20:30:01.077Z,62.91
2023-08-11T20:32:29.152Z,62.73
2023-08-11T20:34:57.070Z,62.70
2023-08-11T20:37:25.366Z,62.58
2023-08-11T20:39:53.303Z,62.54
2023-08-11T20:42:21.256Z,62.50
2023-08-11T20:44:52.953Z,62.45
2023-08-11T20:47:20.938Z,62.64
2023-08-11T20:49:48.987Z,62.56
2023-08-11T20:52:18.242Z,62.70
2023-08-11T20:54:47.661Z,62.68
2023-08-11T20:57:15.811Z,62.89
2023-08-11T20:59:44.791Z,63.09
2023-08-11T21:02:12.816Z,63.10
2023-08-11T21:04:40.867Z,63.09
2023-08-11T21:07:09.346Z,63.12
2023-08-11T21:09:37.630Z,63.02
2023-08-11T21:12:05.947Z,63.07
2023-08-11T21:14:33.919Z,62.77
2023-08-11T21:17:03.265Z,62.56
2023-08-11T21:19:32.038Z,62.44
2023-08-11T21:22:00.091Z,62.14
2023-08-11T21:24:28.161Z,62.23
2023-08-11T21:26:56.458Z,62.08
2023-08-11T21:29:24.577Z,61.99
2023-08-11T21:31:52.563Z,62.00
2023-08-11T21:34:20.505Z,62.10
2023-08-11T21:36:48.380Z,62.09
2023-08-11T21:39:16.324Z,62.43
2023-08-11T21:41:44.194Z,62.81
2023-08-11T21:44:12.492Z,63.03
2023-08-11T21:46:40.666Z,63.59
2023-08-11T21:49:08.851Z,63.95
2023-08-11T21:51:37.695Z,64.23
2023-08-11T21:54:05.763Z,64.50
2023-08-11T21:56:33.758Z,64.88
2023-08-11T21:59:01.651Z,64.84
2023-08-11T22:01:29.689Z,64.88
2023-08-11T22:03:59.721Z,65.07
2023-08-11T22:06:27.713Z,64.97
2023-08-11T22:08:55.575Z,65.08
2023-08-11T22:11:35.984Z,65.33
2023-08-11T22:14:06.353Z,65.22
2023-08-11T22:16:34.632Z,65.33
2023-08-11T22:19:02.666Z,65.41
2023-08-11T22:21:30.770Z,65.50
2023-08-11T22:23:58.779Z,65.72
2023-08-11T22:26:26.785Z,65.86
2023-08-11T22:28:54.693Z,66.18
2023-08-11T22:31:22.625Z,66.47
2023-08-11T22:33:50.590Z,66.88
2023-08-11T22:36:18.544Z,66.99
2023-08-11T22:38:46.790Z,67.00
2023-08-11T22:41:15.662Z,67.41
2023-08-11T22:43:43.538Z,67.48
2023-08-11T22:46:11.663Z,67.55
2023-08-11T22:48:39.626Z,67.60
2023-08-11T22:51:07.651Z,67.69
2023-08-11T22:53:35.737Z,67.74
2023-08-11T22:56:03.968Z,67.82
2023-08-11T22:58:31.956Z,67.86
2023-08-11T23:01:01.711Z,67.89
2023-08-11T23:03:29.699Z,67.84
2023-08-11T23:05:57.783Z,67.90
2023-08-11T23:08:25.883Z,67.95
2023-08-11T23:10:53.692Z,68.00
2023-08-11T23:13:21.526Z,68.20
2023-08-11T23:15:49.487Z,68.35
2023-08-11T23:18:17.597Z,68.34
2023-08-11T23:20:47.002Z,68.47
2023-08-11T23:23:15.833Z,68.60
2023-08-11T23:25:44.486Z,68.60
2023-08-11T23:28:12.283Z,68.51
2023-08-11T23:30:46.392Z,68.58
2023-08-11T23:33:14.412Z,68.83
2023-08-11T23:35:42.366Z,68.72
2023-08-11T23:38:11.910Z,68.85
2023-08-11T23:40:39.859Z,68.87
2023-08-11T23:43:07.906Z,69.00
2023-08-11T23:45:36.139Z,69.13
2023-08-11T23:48:04.476Z,69.18
2023-08-11T23:50:32.596Z,69.14
2023-08-11T23:53:01.623Z,69.00
2023-08-11T23:55:29.853Z,69.03
2023-08-11T23:57:58.040Z,69.11
